N222HL KATL-KCVG
Flight info
| Callsign | N222HL |
|---|---|
| Flight time | 1h 3m |
| Altitude | 41000 |
| Route | PADGT2 SMTTH ARTUR JAKIE7 |
| Aircraft | CL60/M-SBDE1E2E3FGHIJ1J4J5J7M3RWXYZ/LB1V1D1 |
Departure
| Time | 2026-05-04 20:25 |
|---|---|
| Airport | Hartsfield Jackson Atlanta International Airport (KATL) |
Arrival
| Time | 2026-05-04 21:29 |
|---|---|
| Airport | Cincinnati Northern Kentucky International Airport (KCVG) |
| Time | Latitude | Longitude | Altitude | Speed | Heading |
|---|---|---|---|---|---|
| 2026-05-04 20:17 | 33.65216 | -84.42349 | 984 ft | 0 kts | 4° |
| 2026-05-04 20:18 | 33.65217 | -84.42349 | 984 ft | 0 kts | 4° |
| 2026-05-04 20:18 | 33.65224 | -84.42346 | 984 ft | 2 kts | 42° |
| 2026-05-04 20:19 | 33.65210 | -84.42300 | 983 ft | 9 kts | 124° |
| 2026-05-04 20:19 | 33.65158 | -84.42230 | 981 ft | 12 kts | 142° |
| 2026-05-04 20:19 | 33.65102 | -84.42218 | 981 ft | 7 kts | 195° |
| 2026-05-04 20:19 | 33.65093 | -84.42217 | 981 ft | 3 kts | 148° |
| 2026-05-04 20:20 | 33.65067 | -84.42182 | 980 ft | 8 kts | 113° |
| 2026-05-04 20:20 | 33.65064 | -84.42092 | 978 ft | 13 kts | 90° |
| 2026-05-04 20:20 | 33.65064 | -84.41958 | 977 ft | 18 kts | 89° |
| 2026-05-04 20:20 | 33.65064 | -84.41790 | 977 ft | 21 kts | 90° |
| 2026-05-04 20:21 | 33.65065 | -84.41602 | 977 ft | 17 kts | 82° |
| 2026-05-04 20:21 | 33.65100 | -84.41494 | 977 ft | 15 kts | 66° |
| 2026-05-04 20:21 | 33.65120 | -84.41213 | 982 ft | 18 kts | 90° |
| 2026-05-04 20:22 | 33.65120 | -84.41054 | 985 ft | 17 kts | 91° |
| 2026-05-04 20:22 | 33.65120 | -84.41035 | 986 ft | 1 kts | 90° |
| 2026-05-04 20:22 | 33.65117 | -84.41016 | 986 ft | 3 kts | 107° |
| 2026-05-04 20:22 | 33.65088 | -84.40965 | 986 ft | 11 kts | 156° |
| 2026-05-04 20:23 | 33.64999 | -84.40962 | 986 ft | 14 kts | 179° |
| 2026-05-04 20:23 | 33.64876 | -84.40958 | 984 ft | 12 kts | 161° |
| 2026-05-04 20:23 | 33.64846 | -84.40863 | 983 ft | 13 kts | 90° |
| 2026-05-04 20:23 | 33.64845 | -84.40731 | 981 ft | 18 kts | 89° |
| 2026-05-04 20:24 | 33.64834 | -84.40592 | 979 ft | 15 kts | 122° |
| 2026-05-04 20:24 | 33.64746 | -84.40568 | 977 ft | 14 kts | 180° |
| 2026-05-04 20:24 | 33.64677 | -84.40623 | 976 ft | 16 kts | 280° |
| 2026-05-04 20:24 | 33.64680 | -84.40954 | 980 ft | 86 kts | 269° |
| 2026-05-04 20:25 | 33.64681 | -84.42063 | 1078 ft | 169 kts | 266° |
| 2026-05-04 20:25 | 33.64648 | -84.43536 | 1968 ft | 188 kts | 266° |
| 2026-05-04 20:25 | 33.64595 | -84.45184 | 2888 ft | 219 kts | 266° |
| 2026-05-04 20:25 | 33.64786 | -84.46941 | 4349 ft | 224 kts | 291° |
| 2026-05-04 20:26 | 33.65395 | -84.48582 | 5901 ft | 221 kts | 292° |
| 2026-05-04 20:26 | 33.66008 | -84.50185 | 7270 ft | 219 kts | 292° |
| 2026-05-04 20:26 | 33.66642 | -84.51782 | 8652 ft | 217 kts | 292° |
| 2026-05-04 20:26 | 33.67297 | -84.53447 | 9621 ft | 235 kts | 292° |
| 2026-05-04 20:27 | 33.68016 | -84.55318 | 10480 ft | 260 kts | 294° |
| 2026-05-04 20:27 | 33.69132 | -84.57102 | 11413 ft | 284 kts | 318° |
| 2026-05-04 20:27 | 33.70918 | -84.58130 | 12593 ft | 298 kts | 348° |
| 2026-05-04 20:27 | 33.72995 | -84.58221 | 13862 ft | 304 kts | 358° |
| 2026-05-04 20:28 | 33.75111 | -84.58186 | 15039 ft | 310 kts | 358° |
| 2026-05-04 20:28 | 33.77279 | -84.58158 | 16178 ft | 316 kts | 358° |
| 2026-05-04 20:28 | 33.79470 | -84.58131 | 17277 ft | 322 kts | 357° |
| 2026-05-04 20:28 | 33.81718 | -84.57886 | 18369 ft | 330 kts | 10° |
| 2026-05-04 20:29 | 33.83919 | -84.57107 | 19354 ft | 338 kts | 13° |
| 2026-05-04 20:29 | 33.86203 | -84.56258 | 20311 ft | 344 kts | 13° |
| 2026-05-04 20:29 | 33.88482 | -84.55415 | 21240 ft | 349 kts | 12° |
| 2026-05-04 20:29 | 33.90815 | -84.54552 | 22139 ft | 355 kts | 12° |
| 2026-05-04 20:30 | 33.93196 | -84.53672 | 23040 ft | 359 kts | 12° |
| 2026-05-04 20:30 | 33.95586 | -84.52789 | 23880 ft | 365 kts | 11° |
| 2026-05-04 20:30 | 33.98019 | -84.51888 | 24791 ft | 369 kts | 12° |
| 2026-05-04 20:30 | 34.00487 | -84.50974 | 25637 ft | 372 kts | 12° |
| 2026-05-04 20:31 | 34.02976 | -84.50053 | 26447 ft | 375 kts | 11° |
| 2026-05-04 20:31 | 34.05468 | -84.49130 | 27210 ft | 379 kts | 12° |
| 2026-05-04 20:31 | 34.08006 | -84.48189 | 27918 ft | 383 kts | 11° |
| 2026-05-04 20:31 | 34.10558 | -84.47244 | 28580 ft | 387 kts | 11° |
| 2026-05-04 20:32 | 34.13137 | -84.46287 | 29266 ft | 389 kts | 12° |
| 2026-05-04 20:32 | 34.15754 | -84.45317 | 29901 ft | 393 kts | 12° |
| 2026-05-04 20:32 | 34.18399 | -84.44335 | 30524 ft | 397 kts | 11° |
| 2026-05-04 20:32 | 34.21068 | -84.43343 | 31120 ft | 400 kts | 12° |
| 2026-05-04 20:33 | 34.23767 | -84.42342 | 31628 ft | 405 kts | 12° |
| 2026-05-04 20:33 | 34.26514 | -84.41320 | 32154 ft | 409 kts | 12° |
| 2026-05-04 20:33 | 34.29315 | -84.40288 | 32672 ft | 412 kts | 11° |
| 2026-05-04 20:33 | 34.32151 | -84.39495 | 33134 ft | 412 kts | 6° |
| 2026-05-04 20:34 | 34.35070 | -84.38804 | 33577 ft | 416 kts | 6° |
| 2026-05-04 20:34 | 34.37963 | -84.38113 | 34032 ft | 419 kts | 6° |
| 2026-05-04 20:34 | 34.40896 | -84.37410 | 34560 ft | 419 kts | 6° |
| 2026-05-04 20:34 | 34.43824 | -84.36706 | 35052 ft | 417 kts | 6° |
| 2026-05-04 20:35 | 34.46698 | -84.36014 | 35558 ft | 414 kts | 5° |
| 2026-05-04 20:35 | 34.49611 | -84.35312 | 36042 ft | 411 kts | 5° |
| 2026-05-04 20:35 | 34.52416 | -84.34636 | 36474 ft | 409 kts | 5° |
| 2026-05-04 20:35 | 34.55236 | -84.33955 | 36950 ft | 409 kts | 5° |
| 2026-05-04 20:36 | 34.58057 | -84.33275 | 37422 ft | 409 kts | 5° |
| 2026-05-04 20:36 | 34.60862 | -84.32597 | 37829 ft | 408 kts | 4° |
| 2026-05-04 20:36 | 34.63692 | -84.31913 | 38202 ft | 408 kts | 4° |
| 2026-05-04 20:36 | 34.66477 | -84.31239 | 38540 ft | 407 kts | 4° |
| 2026-05-04 20:37 | 34.69260 | -84.30565 | 38915 ft | 406 kts | 4° |
| 2026-05-04 20:37 | 34.72062 | -84.29886 | 39226 ft | 406 kts | 4° |
| 2026-05-04 20:37 | 34.74828 | -84.29215 | 39535 ft | 405 kts | 4° |
| 2026-05-04 20:37 | 34.77614 | -84.28539 | 39822 ft | 405 kts | 4° |
| 2026-05-04 20:38 | 34.80378 | -84.27867 | 40050 ft | 405 kts | 4° |
| 2026-05-04 20:38 | 34.83183 | -84.27186 | 40228 ft | 405 kts | 4° |
| 2026-05-04 20:38 | 34.85946 | -84.26513 | 40451 ft | 404 kts | 4° |
| 2026-05-04 20:38 | 34.88732 | -84.25835 | 40636 ft | 405 kts | 4° |
| 2026-05-04 20:39 | 34.91516 | -84.25157 | 40782 ft | 406 kts | 4° |
| 2026-05-04 20:39 | 34.94273 | -84.24485 | 40937 ft | 407 kts | 4° |
| 2026-05-04 20:39 | 34.99897 | -84.23116 | 41023 ft | 415 kts | 4° |
| 2026-05-04 20:40 | 35.05649 | -84.21712 | 41040 ft | 423 kts | 4° |
| 2026-05-04 20:40 | 35.11490 | -84.20284 | 41050 ft | 431 kts | 4° |
| 2026-05-04 20:41 | 35.17421 | -84.18831 | 41054 ft | 439 kts | 4° |
| 2026-05-04 20:41 | 35.23518 | -84.17333 | 41055 ft | 445 kts | 5° |
| 2026-05-04 20:42 | 35.29609 | -84.15834 | 41052 ft | 451 kts | 5° |
| 2026-05-04 20:42 | 35.35839 | -84.14298 | 41036 ft | 456 kts | 5° |
| 2026-05-04 20:43 | 35.42096 | -84.12753 | 41022 ft | 461 kts | 5° |
| 2026-05-04 20:43 | 35.48436 | -84.11186 | 41007 ft | 467 kts | 5° |
| 2026-05-04 20:44 | 35.54858 | -84.09596 | 40994 ft | 474 kts | 5° |
| 2026-05-04 20:44 | 35.61121 | -84.08041 | 40990 ft | 477 kts | 5° |
| 2026-05-04 20:45 | 35.67644 | -84.06419 | 40984 ft | 477 kts | 5° |
| 2026-05-04 20:45 | 35.74175 | -84.04791 | 40991 ft | 476 kts | 5° |
| 2026-05-04 20:46 | 35.80673 | -84.03169 | 40999 ft | 475 kts | 5° |
| 2026-05-04 20:46 | 35.87163 | -84.01547 | 40998 ft | 475 kts | 5° |
| 2026-05-04 20:47 | 35.93651 | -83.99733 | 40993 ft | 479 kts | 9° |
| 2026-05-04 20:47 | 36.00044 | -83.97465 | 40990 ft | 479 kts | 10° |
| 2026-05-04 20:48 | 36.06488 | -83.95181 | 40988 ft | 479 kts | 10° |
| 2026-05-04 20:48 | 36.12902 | -83.92908 | 40985 ft | 480 kts | 10° |
| 2026-05-04 20:49 | 36.19357 | -83.90618 | 40981 ft | 480 kts | 10° |
| 2026-05-04 20:49 | 36.25759 | -83.88345 | 40980 ft | 479 kts | 10° |
| 2026-05-04 20:50 | 36.32184 | -83.86060 | 40983 ft | 479 kts | 10° |
| 2026-05-04 20:50 | 36.38588 | -83.83781 | 40978 ft | 479 kts | 10° |
| 2026-05-04 20:51 | 36.44976 | -83.81503 | 40983 ft | 479 kts | 10° |
| 2026-05-04 20:51 | 36.51423 | -83.79203 | 40985 ft | 479 kts | 10° |
| 2026-05-04 20:52 | 36.57904 | -83.77683 | 40975 ft | 472 kts | 2° |
| 2026-05-04 20:52 | 36.64463 | -83.76540 | 40979 ft | 473 kts | 2° |
| 2026-05-04 20:53 | 36.70979 | -83.75398 | 40977 ft | 473 kts | 2° |
| 2026-05-04 20:53 | 36.77496 | -83.74252 | 40975 ft | 473 kts | 2° |
| 2026-05-04 20:54 | 36.84030 | -83.73100 | 40972 ft | 472 kts | 2° |
| 2026-05-04 20:54 | 36.90545 | -83.71948 | 40966 ft | 472 kts | 2° |
| 2026-05-04 20:55 | 36.97062 | -83.70794 | 40968 ft | 472 kts | 2° |
| 2026-05-04 20:55 | 37.03558 | -83.69641 | 40963 ft | 473 kts | 2° |
| 2026-05-04 20:56 | 37.10088 | -83.68479 | 40918 ft | 472 kts | 2° |
| 2026-05-04 20:56 | 37.13334 | -83.67898 | 40476 ft | 467 kts | 2° |
| 2026-05-04 20:56 | 37.16517 | -83.67328 | 39941 ft | 465 kts | 2° |
| 2026-05-04 20:57 | 37.19745 | -83.66751 | 39247 ft | 463 kts | 2° |
| 2026-05-04 20:57 | 37.22893 | -83.66187 | 38694 ft | 457 kts | 2° |
| 2026-05-04 20:57 | 37.26047 | -83.65620 | 38061 ft | 453 kts | 2° |
| 2026-05-04 20:57 | 37.29162 | -83.65112 | 37448 ft | 445 kts | 359° |
| 2026-05-04 20:58 | 37.32229 | -83.65014 | 36888 ft | 432 kts | 351° |
| 2026-05-04 20:58 | 37.35197 | -83.65391 | 36343 ft | 422 kts | 344° |
| 2026-05-04 20:58 | 37.38029 | -83.66196 | 35735 ft | 417 kts | 338° |
| 2026-05-04 20:58 | 37.40836 | -83.67209 | 35184 ft | 414 kts | 338° |
| 2026-05-04 20:59 | 37.43580 | -83.68198 | 34631 ft | 412 kts | 338° |
| 2026-05-04 20:59 | 37.46332 | -83.69190 | 34069 ft | 408 kts | 338° |
| 2026-05-04 20:59 | 37.49032 | -83.70164 | 33543 ft | 404 kts | 338° |
| 2026-05-04 20:59 | 37.51751 | -83.71145 | 33010 ft | 399 kts | 338° |
| 2026-05-04 21:00 | 37.54406 | -83.72104 | 32477 ft | 395 kts | 338° |
| 2026-05-04 21:00 | 37.57024 | -83.73051 | 31959 ft | 390 kts | 338° |
| 2026-05-04 21:00 | 37.59626 | -83.73992 | 31442 ft | 386 kts | 338° |
| 2026-05-04 21:00 | 37.62196 | -83.74924 | 30927 ft | 381 kts | 338° |
| 2026-05-04 21:01 | 37.64731 | -83.75842 | 30411 ft | 377 kts | 338° |
| 2026-05-04 21:01 | 37.67240 | -83.76753 | 29933 ft | 372 kts | 338° |
| 2026-05-04 21:01 | 37.69721 | -83.77653 | 29425 ft | 368 kts | 338° |
| 2026-05-04 21:01 | 37.72149 | -83.78536 | 28945 ft | 364 kts | 338° |
| 2026-05-04 21:02 | 37.74572 | -83.79417 | 28467 ft | 360 kts | 338° |
| 2026-05-04 21:02 | 37.76957 | -83.80286 | 27982 ft | 356 kts | 338° |
| 2026-05-04 21:02 | 37.79349 | -83.81157 | 27515 ft | 352 kts | 338° |
| 2026-05-04 21:02 | 37.81690 | -83.82011 | 27048 ft | 348 kts | 338° |
| 2026-05-04 21:03 | 37.83976 | -83.82845 | 26601 ft | 344 kts | 338° |
| 2026-05-04 21:03 | 37.86268 | -83.83682 | 26158 ft | 341 kts | 338° |
| 2026-05-04 21:03 | 37.88555 | -83.84521 | 25699 ft | 343 kts | 339° |
| 2026-05-04 21:03 | 37.90848 | -83.85362 | 25246 ft | 342 kts | 339° |
| 2026-05-04 21:04 | 37.93115 | -83.86191 | 24788 ft | 340 kts | 339° |
| 2026-05-04 21:04 | 37.95383 | -83.87021 | 24347 ft | 337 kts | 339° |
| 2026-05-04 21:04 | 37.97646 | -83.87850 | 23901 ft | 336 kts | 339° |
| 2026-05-04 21:04 | 37.99861 | -83.88662 | 23453 ft | 334 kts | 339° |
| 2026-05-04 21:05 | 38.02095 | -83.89481 | 23016 ft | 332 kts | 339° |
| 2026-05-04 21:05 | 38.04310 | -83.90293 | 22579 ft | 329 kts | 339° |
| 2026-05-04 21:05 | 38.06501 | -83.91098 | 22143 ft | 326 kts | 339° |
| 2026-05-04 21:05 | 38.08650 | -83.91888 | 21710 ft | 325 kts | 339° |
| 2026-05-04 21:06 | 38.10830 | -83.92689 | 21281 ft | 322 kts | 339° |
| 2026-05-04 21:06 | 38.12939 | -83.93552 | 20853 ft | 317 kts | 331° |
| 2026-05-04 21:06 | 38.14856 | -83.94856 | 20495 ft | 309 kts | 325° |
| 2026-05-04 21:06 | 38.16722 | -83.96207 | 20215 ft | 310 kts | 326° |
| 2026-05-04 21:07 | 38.18594 | -83.97555 | 19890 ft | 308 kts | 326° |
| 2026-05-04 21:07 | 38.20458 | -83.98897 | 19572 ft | 307 kts | 325° |
| 2026-05-04 21:07 | 38.22311 | -84.00230 | 19244 ft | 305 kts | 325° |
| 2026-05-04 21:07 | 38.24155 | -84.01557 | 18919 ft | 303 kts | 325° |
| 2026-05-04 21:08 | 38.25991 | -84.02879 | 18620 ft | 301 kts | 325° |
| 2026-05-04 21:08 | 38.27794 | -84.04177 | 18282 ft | 299 kts | 325° |
| 2026-05-04 21:08 | 38.29603 | -84.05480 | 17975 ft | 297 kts | 325° |
| 2026-05-04 21:08 | 38.31395 | -84.06772 | 17645 ft | 296 kts | 325° |
| 2026-05-04 21:09 | 38.33189 | -84.08064 | 17502 ft | 291 kts | 325° |
| 2026-05-04 21:09 | 38.34965 | -84.09348 | 17128 ft | 297 kts | 325° |
| 2026-05-04 21:09 | 38.36752 | -84.10636 | 16837 ft | 292 kts | 324° |
| 2026-05-04 21:09 | 38.38525 | -84.11917 | 16521 ft | 292 kts | 324° |
| 2026-05-04 21:10 | 38.40294 | -84.13195 | 16215 ft | 292 kts | 324° |
| 2026-05-04 21:10 | 38.42037 | -84.14455 | 15928 ft | 291 kts | 324° |
| 2026-05-04 21:10 | 38.43816 | -84.15742 | 15625 ft | 291 kts | 324° |
| 2026-05-04 21:10 | 38.45576 | -84.17016 | 15317 ft | 290 kts | 324° |
| 2026-05-04 21:11 | 38.47338 | -84.18291 | 15012 ft | 290 kts | 324° |
| 2026-05-04 21:11 | 38.49085 | -84.19557 | 14719 ft | 289 kts | 324° |
| 2026-05-04 21:11 | 38.50835 | -84.20826 | 14406 ft | 289 kts | 324° |
| 2026-05-04 21:11 | 38.52583 | -84.22094 | 14108 ft | 288 kts | 323° |
| 2026-05-04 21:12 | 38.54325 | -84.23357 | 13802 ft | 288 kts | 323° |
| 2026-05-04 21:12 | 38.56092 | -84.24640 | 13497 ft | 287 kts | 323° |
| 2026-05-04 21:12 | 38.57821 | -84.25894 | 13198 ft | 287 kts | 323° |
| 2026-05-04 21:12 | 38.59552 | -84.27151 | 12906 ft | 286 kts | 323° |
| 2026-05-04 21:13 | 38.61270 | -84.28400 | 12608 ft | 286 kts | 323° |
| 2026-05-04 21:13 | 38.63005 | -84.29661 | 12305 ft | 285 kts | 323° |
| 2026-05-04 21:13 | 38.64725 | -84.30926 | 12003 ft | 284 kts | 321° |
| 2026-05-04 21:13 | 38.66400 | -84.32261 | 11716 ft | 281 kts | 320° |
| 2026-05-04 21:14 | 38.68064 | -84.33604 | 11460 ft | 281 kts | 320° |
| 2026-05-04 21:14 | 38.69708 | -84.34930 | 11232 ft | 280 kts | 320° |
| 2026-05-04 21:14 | 38.71355 | -84.36261 | 10964 ft | 281 kts | 320° |
| 2026-05-04 21:14 | 38.73020 | -84.37605 | 10700 ft | 279 kts | 320° |
| 2026-05-04 21:15 | 38.74650 | -84.38921 | 10449 ft | 275 kts | 320° |
| 2026-05-04 21:15 | 38.76251 | -84.40214 | 10191 ft | 271 kts | 320° |
| 2026-05-04 21:15 | 38.77839 | -84.41496 | 9945 ft | 266 kts | 320° |
| 2026-05-04 21:15 | 38.79394 | -84.42754 | 9697 ft | 261 kts | 320° |
| 2026-05-04 21:16 | 38.80895 | -84.43967 | 9460 ft | 255 kts | 320° |
| 2026-05-04 21:16 | 38.82394 | -84.45180 | 9214 ft | 249 kts | 319° |
| 2026-05-04 21:16 | 38.83840 | -84.46351 | 8993 ft | 243 kts | 319° |
| 2026-05-04 21:16 | 38.85252 | -84.47497 | 8771 ft | 239 kts | 319° |
| 2026-05-04 21:17 | 38.86659 | -84.48639 | 8544 ft | 235 kts | 319° |
| 2026-05-04 21:17 | 38.88021 | -84.49745 | 8315 ft | 231 kts | 319° |
| 2026-05-04 21:17 | 38.89378 | -84.50849 | 8125 ft | 229 kts | 319° |
| 2026-05-04 21:17 | 38.90720 | -84.51945 | 7903 ft | 231 kts | 319° |
| 2026-05-04 21:18 | 38.92081 | -84.53053 | 7691 ft | 231 kts | 320° |
| 2026-05-04 21:18 | 38.93606 | -84.53863 | 7464 ft | 243 kts | 342° |
| 2026-05-04 21:18 | 38.95333 | -84.53895 | 7232 ft | 252 kts | 357° |
| 2026-05-04 21:18 | 38.97102 | -84.53722 | 6972 ft | 253 kts | 357° |
| 2026-05-04 21:19 | 38.98848 | -84.53561 | 6752 ft | 252 kts | 357° |
| 2026-05-04 21:19 | 39.00599 | -84.53484 | 6516 ft | 250 kts | 353° |
| 2026-05-04 21:19 | 39.02349 | -84.53473 | 6279 ft | 250 kts | 353° |
| 2026-05-04 21:19 | 39.04087 | -84.53462 | 6041 ft | 250 kts | 353° |
| 2026-05-04 21:20 | 39.05820 | -84.53449 | 5817 ft | 248 kts | 353° |
| 2026-05-04 21:20 | 39.07513 | -84.53436 | 5667 ft | 244 kts | 354° |
| 2026-05-04 21:20 | 39.09235 | -84.53426 | 5594 ft | 247 kts | 353° |
| 2026-05-04 21:20 | 39.10995 | -84.53416 | 5487 ft | 250 kts | 353° |
| 2026-05-04 21:21 | 39.12727 | -84.53406 | 5334 ft | 248 kts | 354° |
| 2026-05-04 21:21 | 39.14452 | -84.53394 | 5214 ft | 248 kts | 354° |
| 2026-05-04 21:21 | 39.16163 | -84.53384 | 5081 ft | 247 kts | 354° |
| 2026-05-04 21:21 | 39.17900 | -84.53374 | 4936 ft | 247 kts | 354° |
| 2026-05-04 21:22 | 39.19544 | -84.53619 | 4795 ft | 230 kts | 334° |
| 2026-05-04 21:22 | 39.20817 | -84.54696 | 4636 ft | 211 kts | 305° |
| 2026-05-04 21:22 | 39.21515 | -84.56252 | 4497 ft | 198 kts | 282° |
| 2026-05-04 21:22 | 39.21707 | -84.57976 | 4344 ft | 190 kts | 266° |
| 2026-05-04 21:23 | 39.21711 | -84.59615 | 4275 ft | 177 kts | 265° |
| 2026-05-04 21:23 | 39.21718 | -84.61155 | 4172 ft | 170 kts | 265° |
| 2026-05-04 21:23 | 39.21702 | -84.62679 | 4081 ft | 167 kts | 259° |
| 2026-05-04 21:23 | 39.21222 | -84.63988 | 3983 ft | 164 kts | 227° |
| 2026-05-04 21:24 | 39.20194 | -84.64618 | 3777 ft | 170 kts | 194° |
| 2026-05-04 21:24 | 39.18983 | -84.64648 | 3454 ft | 173 kts | 185° |
| 2026-05-04 21:24 | 39.17806 | -84.64616 | 3221 ft | 169 kts | 186° |
| 2026-05-04 21:24 | 39.16621 | -84.64616 | 2968 ft | 166 kts | 187° |
| 2026-05-04 21:25 | 39.15533 | -84.64614 | 2771 ft | 144 kts | 187° |
| 2026-05-04 21:25 | 39.14619 | -84.64606 | 2602 ft | 117 kts | 188° |
| 2026-05-04 21:25 | 39.13830 | -84.64610 | 2469 ft | 111 kts | 189° |
| 2026-05-04 21:25 | 39.13068 | -84.64623 | 2310 ft | 107 kts | 188° |
| 2026-05-04 21:26 | 39.12312 | -84.64632 | 2174 ft | 108 kts | 189° |
| 2026-05-04 21:26 | 39.11563 | -84.64639 | 2048 ft | 108 kts | 188° |
| 2026-05-04 21:26 | 39.10803 | -84.64643 | 1902 ft | 108 kts | 187° |
| 2026-05-04 21:26 | 39.10041 | -84.64647 | 1762 ft | 109 kts | 187° |
| 2026-05-04 21:27 | 39.09389 | -84.64637 | 1657 ft | 110 kts | 186° |
| 2026-05-04 21:27 | 39.08626 | -84.64623 | 1499 ft | 109 kts | 186° |
| 2026-05-04 21:27 | 39.07859 | -84.64652 | 1306 ft | 110 kts | 188° |
| 2026-05-04 21:27 | 39.07083 | -84.64675 | 1202 ft | 113 kts | 186° |
| 2026-05-04 21:28 | 39.06289 | -84.64661 | 1061 ft | 113 kts | 184° |
| 2026-05-04 21:28 | 39.05495 | -84.64666 | 916 ft | 115 kts | 185° |
| 2026-05-04 21:28 | 39.04771 | -84.64671 | 890 ft | 91 kts | 181° |
| 2026-05-04 21:28 | 39.04279 | -84.64674 | 897 ft | 54 kts | 179° |
| 2026-05-04 21:29 | 39.04022 | -84.64716 | 895 ft | 21 kts | 210° |
| 2026-05-04 21:29 | 39.03958 | -84.64825 | 890 ft | 10 kts | 264° |
| 2026-05-04 21:29 | 39.04012 | -84.64887 | 888 ft | 14 kts | 7° |
| 2026-05-04 21:29 | 39.04117 | -84.64885 | 891 ft | 16 kts | 0° |
| 2026-05-04 21:30 | 39.04242 | -84.64883 | 891 ft | 20 kts | 0° |
| 2026-05-04 21:30 | 39.04394 | -84.64883 | 891 ft | 21 kts | 0° |
| 2026-05-04 21:30 | 39.04461 | -84.64938 | 888 ft | 13 kts | 269° |
| 2026-05-04 21:30 | 39.04462 | -84.65085 | 885 ft | 18 kts | 271° |
| 2026-05-04 21:31 | 39.04462 | -84.65474 | 875 ft | 21 kts | 269° |
| 2026-05-04 21:31 | 39.04436 | -84.65589 | 872 ft | 13 kts | 176° |
| 2026-05-04 21:31 | 39.04345 | -84.65578 | 874 ft | 8 kts | 172° |
| 2026-05-04 21:32 | 39.04323 | -84.65612 | 873 ft | 0 kts | 271° |